Weather at Ballyjamesduff Airstrip

Public forecast

Using degrees Celsius for public forecast. Weather courtesy of forecast.io.

Closest aviation weather report (METAR) to Ballyjamesduff Airstrip

Closest report is Dublin Airport, 42.8 nm (79.3 km) SE.

2024/04/18 01:00 (retrieved 15 minutes ago)

EIDW 180100Z VRB02KT 5000 R28L/2000N R10R/0700N R28R/2000N BCFG BR FEW003 02/01 Q1024 TEMPO 1500

Closest aviation forecast (TAF) to Ballyjamesduff Airstrip

Forecast is more than 6 hours old.

Closest forecast is RAF Fairford, 236.5 nm (438.1 km) ESE.

2024/04/17 14:24 (retrieved 11 hours ago)

TAF TAF EGVA 171415Z 1714/1820 32015G20KT 9999 SCT040 BKN120 QNH2996INS BECMG 1719/1720 32010G15KT 9999 -RA SCT030 QNH3002INS BECMG 1802/1803 36009KT 8000 BR SCT009 BKN015 QNH3015INS BECMG 1807/1808 35009KT 9999 NSW FEW010 SCT020 QNH3023INS BECMG 1814/1815 27010G18KT 9999 FEW050 BKN110 QNH3016INS BECMG 1817/1818 27012G20KT 9999 BKN025 OVC035 QNH3015INS TX13/1715Z TN02/1803Z